createdAt,value
2023-10-06T00:00:49.428Z,2.10
2023-10-06T00:03:17.515Z,1.60
2023-10-06T00:05:45.646Z,1.90
2023-10-06T00:08:16.647Z,2.10
2023-10-06T00:10:55.618Z,1.50
2023-10-06T00:13:45.880Z,1.80
2023-10-06T00:16:14.179Z,2.00
2023-10-06T00:18:41.615Z,1.60
2023-10-06T00:21:16.566Z,1.40
2023-10-06T00:24:38.557Z,1.70
2023-10-06T00:27:11.986Z,1.70
2023-10-06T00:29:40.421Z,1.60
2023-10-06T00:32:25.893Z,1.50
2023-10-06T00:35:13.161Z,1.40
2023-10-06T00:37:41.065Z,1.50
2023-10-06T00:40:21.996Z,1.60
2023-10-06T00:42:52.931Z,2.10
2023-10-06T00:45:20.343Z,1.50
2023-10-06T00:47:47.703Z,1.70
2023-10-06T00:50:16.784Z,1.90
2023-10-06T00:52:44.829Z,1.30
2023-10-06T00:55:13.536Z,1.60
2023-10-06T00:57:41.868Z,2.10
2023-10-06T01:00:18.039Z,1.50
2023-10-06T01:02:45.988Z,1.50
2023-10-06T01:05:16.584Z,1.30
2023-10-06T01:07:47.298Z,1.10
2023-10-06T01:10:29.561Z,1.40
2023-10-06T01:12:58.325Z,1.20
2023-10-06T01:15:30.605Z,1.40
2023-10-06T01:18:00.077Z,1.10
2023-10-06T01:20:42.059Z,1.90
2023-10-06T01:23:17.194Z,1.40
2023-10-06T01:25:47.808Z,1.40
2023-10-06T01:28:15.156Z,1.40
2023-10-06T01:30:42.603Z,1.30
2023-10-06T01:33:10.856Z,1.60
2023-10-06T01:35:43.814Z,1.40
2023-10-06T01:38:24.024Z,1.10
2023-10-06T01:40:55.393Z,1.30
2023-10-06T01:43:31.155Z,1.10
2023-10-06T01:46:00.816Z,1.00
2023-10-06T01:48:32.254Z,1.30
2023-10-06T01:50:59.983Z,1.50
2023-10-06T01:53:34.049Z,1.50
2023-10-06T01:56:08.200Z,1.00
2023-10-06T01:58:36.979Z,1.30
2023-10-06T02:01:07.444Z,0.90
2023-10-06T02:03:39.881Z,1.00
2023-10-06T02:06:14.112Z,1.80
2023-10-06T02:08:43.774Z,1.20
2023-10-06T02:11:13.700Z,1.10
2023-10-06T02:13:41.123Z,1.20
2023-10-06T02:16:10.079Z,0.90
2023-10-06T02:18:37.890Z,1.10
2023-10-06T02:21:13.235Z,1.20
2023-10-06T02:23:42.628Z,1.00
2023-10-06T02:26:13.692Z,1.00
2023-10-06T02:28:45.672Z,1.20
2023-10-06T02:31:13.587Z,1.20
2023-10-06T02:33:41.688Z,1.10
2023-10-06T02:36:35.413Z,1.00
2023-10-06T02:39:07.426Z,0.90
2023-10-06T02:41:35.334Z,1.00
2023-10-06T02:44:15.555Z,1.30
2023-10-06T02:46:46.062Z,1.20
2023-10-06T02:49:13.500Z,1.00
2023-10-06T02:51:49.839Z,1.00
2023-10-06T02:54:17.196Z,1.00
2023-10-06T02:56:47.604Z,1.10
2023-10-06T02:59:27.330Z,0.90
2023-10-06T03:01:59.296Z,1.20
2023-10-06T03:04:27.860Z,1.20
2023-10-06T03:06:59.150Z,1.10
2023-10-06T03:09:30.608Z,1.10
2023-10-06T03:12:01.318Z,1.10
2023-10-06T03:14:39.098Z,1.30
2023-10-06T03:17:09.766Z,1.00
2023-10-06T03:19:41.810Z,0.90
2023-10-06T03:22:14.284Z,0.90
2023-10-06T03:25:01.651Z,1.10
2023-10-06T03:27:30.315Z,0.80
2023-10-06T03:30:08.940Z,0.90
2023-10-06T03:32:40.809Z,1.10
2023-10-06T03:35:25.348Z,1.10
2023-10-06T03:37:55.267Z,1.20
2023-10-06T03:40:31.930Z,0.90
2023-10-06T03:43:06.207Z,0.80
2023-10-06T03:45:35.329Z,0.90
2023-10-06T03:48:15.017Z,0.80
2023-10-06T03:50:45.166Z,0.80
2023-10-06T03:53:14.012Z,1.00
2023-10-06T03:55:42.518Z,0.80
2023-10-06T03:58:11.419Z,0.90
2023-10-06T04:00:48.779Z,0.80
2023-10-06T04:03:18.552Z,0.80
2023-10-06T04:05:50.159Z,0.90
2023-10-06T04:08:20.317Z,0.90
2023-10-06T04:10:54.616Z,0.80
2023-10-06T04:13:22.065Z,1.00
2023-10-06T04:15:53.945Z,1.50
2023-10-06T04:18:24.392Z,0.90
2023-10-06T04:20:53.080Z,0.90
2023-10-06T04:23:24.274Z,0.80
2023-10-06T04:25:56.435Z,0.80
2023-10-06T04:28:26.623Z,1.60
2023-10-06T04:30:55.673Z,0.70
2023-10-06T04:33:26.782Z,0.70
2023-10-06T04:35:57.580Z,0.80
2023-10-06T04:38:25.120Z,0.90
2023-10-06T04:40:57.861Z,0.90
2023-10-06T04:43:25.468Z,0.90
2023-10-06T04:45:52.810Z,0.90
2023-10-06T04:48:20.150Z,0.70
2023-10-06T04:50:47.744Z,0.70
2023-10-06T04:53:18.096Z,0.70
2023-10-06T04:55:45.440Z,0.90
2023-10-06T04:58:16.087Z,0.70
2023-10-06T05:00:43.425Z,0.80
2023-10-06T05:03:12.670Z,0.80
2023-10-06T05:05:41.504Z,0.60
2023-10-06T05:08:15.881Z,0.70
2023-10-06T05:10:43.508Z,0.60
2023-10-06T05:13:11.864Z,0.50
2023-10-06T05:15:42.422Z,0.60
2023-10-06T05:18:17.087Z,0.60
2023-10-06T05:20:44.856Z,0.60
2023-10-06T05:23:15.791Z,0.70
2023-10-06T05:25:46.110Z,0.60
2023-10-06T05:28:17.929Z,0.70
2023-10-06T05:30:45.743Z,0.80
2023-10-06T05:33:15.687Z,0.90
2023-10-06T05:35:45.097Z,0.70
2023-10-06T05:38:15.693Z,0.60
2023-10-06T05:40:47.698Z,0.60
2023-10-06T05:43:17.452Z,0.70
2023-10-06T05:45:46.437Z,0.50
2023-10-06T05:48:14.114Z,0.80
2023-10-06T05:50:45.264Z,0.50
2023-10-06T05:53:21.229Z,0.60
2023-10-06T05:55:51.049Z,0.60
2023-10-06T05:58:24.730Z,0.40
2023-10-06T06:00:52.630Z,0.60
2023-10-06T06:03:22.053Z,0.50
2023-10-06T06:05:58.832Z,0.40
2023-10-06T06:08:26.203Z,0.50
2023-10-06T06:10:53.563Z,0.40
2023-10-06T06:13:22.991Z,0.50
2023-10-06T06:15:50.753Z,0.40
2023-10-06T06:18:18.210Z,0.40
2023-10-06T06:20:47.108Z,0.30
2023-10-06T06:23:16.402Z,0.30
2023-10-06T06:25:45.781Z,0.40
2023-10-06T06:28:13.603Z,0.30
2023-10-06T06:30:41.129Z,0.40
2023-10-06T06:33:23.706Z,0.30
2023-10-06T06:35:51.257Z,0.30
2023-10-06T06:38:20.130Z,0.40
2023-10-06T06:40:47.667Z,0.40
2023-10-06T06:43:15.133Z,0.30
2023-10-06T06:45:42.549Z,0.20
2023-10-06T06:48:14.578Z,0.60
2023-10-06T06:50:45.951Z,0.20
2023-10-06T06:53:13.760Z,0.20
2023-10-06T06:55:43.677Z,0.20
2023-10-06T06:58:13.086Z,0.20
2023-10-06T07:00:43.430Z,0.20
2023-10-06T07:03:12.673Z,0.20
2023-10-06T07:05:40.874Z,0.20
2023-10-06T07:08:08.603Z,0.20
2023-10-06T07:10:40.351Z,0.30
2023-10-06T07:13:08.103Z,0.20
2023-10-06T07:15:35.438Z,0.30
2023-10-06T07:18:03.161Z,0.30
2023-10-06T07:20:31.613Z,0.20
2023-10-06T07:23:01.962Z,0.20
2023-10-06T07:25:29.887Z,0.30
2023-10-06T07:27:59.006Z,0.20
2023-10-06T07:30:30.339Z,0.20
2023-10-06T07:32:57.789Z,0.20
2023-10-06T07:35:48.898Z,0.30
2023-10-06T07:38:16.372Z,0.30
2023-10-06T07:40:43.934Z,0.20
2023-10-06T07:43:11.953Z,0.30
2023-10-06T07:45:39.766Z,0.30
2023-10-06T07:48:07.361Z,0.30
2023-10-06T07:50:36.040Z,0.40
2023-10-06T07:53:03.908Z,0.30
2023-10-06T07:55:33.448Z,0.30
2023-10-06T07:58:01.874Z,0.30
2023-10-06T08:00:30.868Z,0.20
2023-10-06T08:02:59.251Z,0.20
2023-10-06T08:05:29.589Z,0.20
2023-10-06T08:07:59.814Z,0.20
2023-10-06T08:10:31.361Z,0.20
2023-10-06T08:13:02.961Z,0.30
2023-10-06T08:15:33.640Z,0.20
2023-10-06T08:18:01.841Z,0.20
2023-10-06T08:20:31.397Z,0.30
2023-10-06T08:22:59.314Z,0.20
2023-10-06T08:25:27.450Z,0.20
2023-10-06T08:27:56.070Z,0.20
2023-10-06T08:30:23.472Z,0.20
2023-10-06T08:32:53.405Z,0.30
2023-10-06T08:35:21.689Z,0.20
2023-10-06T08:37:51.128Z,0.40
2023-10-06T08:40:20.941Z,0.30
2023-10-06T08:42:55.090Z,0.20
2023-10-06T08:45:25.975Z,0.30
2023-10-06T08:48:02.490Z,0.30
2023-10-06T08:50:32.941Z,0.30
2023-10-06T08:53:02.705Z,0.30
2023-10-06T08:55:30.652Z,0.20
2023-10-06T08:58:03.934Z,0.30
2023-10-06T09:00:35.624Z,0.20
2023-10-06T09:03:10.968Z,0.20
2023-10-06T09:05:42.539Z,0.20
2023-10-06T09:08:11.262Z,0.30
2023-10-06T09:10:52.480Z,0.20
2023-10-06T09:13:20.572Z,0.20
2023-10-06T09:16:04.313Z,0.30
2023-10-06T09:18:35.959Z,0.20
2023-10-06T09:21:22.639Z,0.10
2023-10-06T09:23:50.704Z,0.20
2023-10-06T09:26:30.748Z,0.20
2023-10-06T09:29:02.982Z,0.20
2023-10-06T09:31:46.142Z,0.20
2023-10-06T09:34:24.602Z,0.30
2023-10-06T09:36:52.472Z,0.10
2023-10-06T09:39:34.465Z,0.20
2023-10-06T09:42:02.118Z,0.20
2023-10-06T09:44:29.436Z,0.20
2023-10-06T09:46:58.479Z,0.20
2023-10-06T09:49:26.970Z,0.20
2023-10-06T09:51:54.420Z,0.20
2023-10-06T09:54:21.886Z,0.20
2023-10-06T09:56:49.279Z,0.50
2023-10-06T09:59:17.339Z,0.20
2023-10-06T10:01:47.183Z,0.20
2023-10-06T10:04:15.611Z,0.20
2023-10-06T10:06:46.269Z,0.20
2023-10-06T10:09:18.334Z,0.30
2023-10-06T10:12:32.621Z,0.20
2023-10-06T10:15:17.346Z,0.30
2023-10-06T10:20:16.412Z,0.20
2023-10-06T10:22:44.193Z,0.20
2023-10-06T10:27:45.051Z,0.20
2023-10-06T10:30:14.068Z,0.20
2023-10-06T10:32:43.178Z,0.20
2023-10-06T10:35:19.903Z,0.10
2023-10-06T10:38:08.015Z,0.20
2023-10-06T10:40:48.782Z,0.20
2023-10-06T10:43:17.167Z,0.20
2023-10-06T10:45:45.486Z,0.20
2023-10-06T10:48:16.716Z,0.20
2023-10-06T10:51:01.204Z,0.30
2023-10-06T10:53:32.645Z,0.20
2023-10-06T10:56:01.604Z,0.10
2023-10-06T10:58:46.119Z,0.10
2023-10-06T11:01:37.625Z,0.20
2023-10-06T11:04:30.576Z,0.20
2023-10-06T11:07:02.698Z,0.30
2023-10-06T11:09:30.681Z,0.20
2023-10-06T11:12:20.217Z,0.30
2023-10-06T11:14:47.566Z,0.20
2023-10-06T11:17:15.400Z,0.40
2023-10-06T11:19:42.814Z,0.30
2023-10-06T11:22:10.912Z,0.30
2023-10-06T11:24:38.714Z,0.20
2023-10-06T11:27:24.169Z,0.20
2023-10-06T11:29:56.232Z,0.20
2023-10-06T11:32:23.704Z,0.30
2023-10-06T11:34:51.940Z,0.30
2023-10-06T11:37:26.465Z,0.30
2023-10-06T11:39:54.678Z,0.20
2023-10-06T11:42:28.866Z,0.30
2023-10-06T11:44:57.818Z,0.20
2023-10-06T11:47:28.389Z,0.20
2023-10-06T11:49:56.464Z,0.30
2023-10-06T11:52:23.845Z,0.10
2023-10-06T11:54:52.864Z,0.30
2023-10-06T11:57:23.056Z,0.20
2023-10-06T11:59:51.157Z,0.20
2023-10-06T12:02:18.841Z,0.30
2023-10-06T12:04:46.362Z,0.20
2023-10-06T12:07:23.288Z,0.30
2023-10-06T12:09:51.129Z,0.30
2023-10-06T12:12:18.852Z,0.20
2023-10-06T12:14:46.400Z,0.20
2023-10-06T12:17:16.233Z,0.30
2023-10-06T12:19:43.670Z,0.10
2023-10-06T12:22:14.328Z,0.20
2023-10-06T12:24:41.986Z,0.30
2023-10-06T12:27:10.732Z,0.20
2023-10-06T12:29:40.173Z,0.20
2023-10-06T12:32:07.507Z,0.30
2023-10-06T12:34:34.959Z,0.20
2023-10-06T12:37:05.314Z,0.20
2023-10-06T12:41:29.660Z,0.20
2023-10-06T12:44:04.363Z,0.20
2023-10-06T12:46:34.528Z,0.20
2023-10-06T12:49:08.217Z,0.20
2023-10-06T12:51:37.030Z,0.20
2023-10-06T12:54:05.175Z,0.20
2023-10-06T12:56:33.080Z,0.20
2023-10-06T12:59:00.617Z,0.30
2023-10-06T13:01:32.083Z,0.20
2023-10-06T13:03:59.666Z,0.20
2023-10-06T13:06:27.307Z,0.20
2023-10-06T13:08:54.690Z,0.30
2023-10-06T13:11:23.374Z,0.10
2023-10-06T13:13:50.940Z,0.20
2023-10-06T13:18:35.106Z,0.30
2023-10-06T13:21:02.411Z,0.20
2023-10-06T13:23:30.864Z,0.20
2023-10-06T13:25:59.538Z,0.20
2023-10-06T13:28:27.388Z,0.20
2023-10-06T13:30:55.318Z,0.30
2023-10-06T13:33:22.980Z,0.40
2023-10-06T13:35:50.516Z,0.20
2023-10-06T13:38:17.855Z,0.30
2023-10-06T13:40:46.411Z,0.30
2023-10-06T13:43:14.565Z,0.30
2023-10-06T13:45:46.588Z,0.10
2023-10-06T13:48:16.948Z,0.30
2023-10-06T13:50:44.666Z,0.40
2023-10-06T13:53:11.974Z,0.20
2023-10-06T13:55:39.622Z,0.20
2023-10-06T13:58:06.990Z,0.40
2023-10-06T14:00:36.718Z,0.80
2023-10-06T14:03:05.657Z,0.50
2023-10-06T14:05:34.271Z,0.40
2023-10-06T14:08:03.255Z,0.30
2023-10-06T14:10:32.616Z,0.20
2023-10-06T14:13:32.419Z,0.20
2023-10-06T14:16:02.741Z,0.30
2023-10-06T14:18:33.970Z,0.40
2023-10-06T14:21:07.486Z,0.30
2023-10-06T14:23:44.978Z,0.30
2023-10-06T14:26:12.877Z,0.30
2023-10-06T14:28:41.204Z,0.20
2023-10-06T14:31:17.814Z,0.30
2023-10-06T14:34:11.406Z,0.40
2023-10-06T14:36:39.454Z,0.40
2023-10-06T14:39:25.394Z,0.40
2023-10-06T14:42:01.692Z,0.30
2023-10-06T14:44:47.913Z,0.30
2023-10-06T14:47:15.303Z,0.50
2023-10-06T14:49:45.410Z,0.30
2023-10-06T14:52:14.472Z,0.40
2023-10-06T14:54:41.937Z,0.30
2023-10-06T14:57:09.436Z,0.30
2023-10-06T14:59:36.794Z,0.30
2023-10-06T15:02:08.236Z,0.60
2023-10-06T15:04:36.988Z,0.50
2023-10-06T15:07:04.408Z,0.40
2023-10-06T15:09:32.488Z,0.50
2023-10-06T15:12:00.896Z,0.40
2023-10-06T15:14:29.576Z,0.40
2023-10-06T15:17:01.102Z,0.40
2023-10-06T15:19:28.796Z,0.40
2023-10-06T15:21:56.669Z,0.60
2023-10-06T15:24:24.224Z,0.40
2023-10-06T15:26:51.966Z,0.40
2023-10-06T15:29:22.520Z,0.50
2023-10-06T15:31:50.770Z,0.50
2023-10-06T15:34:18.766Z,0.50
2023-10-06T15:36:46.378Z,0.40
2023-10-06T15:39:20.124Z,0.40
2023-10-06T15:41:49.989Z,0.40
2023-10-06T15:44:18.180Z,0.50
2023-10-06T15:46:46.390Z,0.30
2023-10-06T15:49:17.424Z,0.40
2023-10-06T15:51:48.578Z,0.30
2023-10-06T15:54:17.120Z,0.50
2023-10-06T15:56:45.469Z,0.70
2023-10-06T15:59:17.542Z,0.70
2023-10-06T16:01:46.489Z,0.90
2023-10-06T16:04:15.601Z,0.90
2023-10-06T16:06:44.759Z,0.90
2023-10-06T16:09:17.824Z,1.10
2023-10-06T16:11:46.197Z,0.70
2023-10-06T16:14:17.369Z,1.00
2023-10-06T16:16:47.444Z,1.10
2023-10-06T16:19:15.536Z,0.90
2023-10-06T16:21:43.322Z,0.90
2023-10-06T16:24:13.435Z,1.10
2023-10-06T16:26:42.168Z,0.70
2023-10-06T16:29:11.168Z,0.90
2023-10-06T16:31:39.316Z,0.90
2023-10-06T16:34:06.783Z,0.80
2023-10-06T16:36:34.152Z,0.90
2023-10-06T16:39:01.624Z,0.80
2023-10-06T16:41:28.991Z,0.80
2023-10-06T16:43:59.624Z,0.90
2023-10-06T16:46:27.104Z,1.00
2023-10-06T16:48:54.597Z,1.00
2023-10-06T16:51:22.121Z,1.10
2023-10-06T16:53:50.101Z,1.00
2023-10-06T16:56:19.962Z,0.90
2023-10-06T16:58:47.779Z,1.20
2023-10-06T17:01:15.534Z,1.20
2023-10-06T17:03:43.188Z,1.40
2023-10-06T17:06:12.598Z,1.20
2023-10-06T17:08:41.521Z,1.20
2023-10-06T17:11:15.742Z,1.10
2023-10-06T17:13:43.523Z,1.60
2023-10-06T17:16:14.640Z,1.30
2023-10-06T17:18:43.148Z,1.10
2023-10-06T17:21:14.210Z,1.20
2023-10-06T17:23:43.796Z,1.10
2023-10-06T17:26:13.842Z,0.90
2023-10-06T17:28:41.580Z,1.10
2023-10-06T17:31:19.712Z,0.90
2023-10-06T17:33:48.642Z,0.90
2023-10-06T17:36:16.236Z,0.80
2023-10-06T17:38:43.832Z,1.50
2023-10-06T17:41:16.688Z,1.10
2023-10-06T17:43:46.132Z,1.00
2023-10-06T17:46:17.249Z,1.30
2023-10-06T17:48:48.458Z,1.10
2023-10-06T17:51:17.103Z,1.30
2023-10-06T17:53:44.708Z,1.00
2023-10-06T17:56:12.608Z,0.90
2023-10-06T17:58:40.883Z,1.20
2023-10-06T18:01:08.865Z,1.10
2023-10-06T18:03:36.438Z,0.90
2023-10-06T18:06:04.593Z,1.10
2023-10-06T18:08:33.145Z,1.20
2023-10-06T18:11:00.540Z,1.20
2023-10-06T18:13:28.189Z,1.00
2023-10-06T18:15:55.625Z,1.10
2023-10-06T18:18:23.149Z,1.30
2023-10-06T18:20:50.977Z,1.30
2023-10-06T18:23:18.313Z,1.10
2023-10-06T18:25:45.626Z,0.90
2023-10-06T18:28:13.181Z,1.10
2023-10-06T18:30:47.318Z,1.00
2023-10-06T18:33:14.710Z,1.00
2023-10-06T18:35:42.139Z,1.20
2023-10-06T18:38:09.440Z,1.50
2023-10-06T18:40:37.454Z,1.10
2023-10-06T18:43:05.553Z,0.90
2023-10-06T18:45:34.194Z,1.40
2023-10-06T18:48:02.374Z,1.10
2023-10-06T18:50:31.676Z,0.90
2023-10-06T18:52:59.029Z,1.30
2023-10-06T18:55:26.590Z,1.20
2023-10-06T18:57:54.898Z,1.10
2023-10-06T19:00:24.314Z,1.90
2023-10-06T19:02:52.924Z,1.10
2023-10-06T19:05:20.317Z,1.30
2023-10-06T19:07:48.525Z,1.10
2023-10-06T19:10:16.379Z,1.00
2023-10-06T19:12:46.767Z,1.30
2023-10-06T19:15:14.423Z,1.20
2023-10-06T19:17:42.550Z,1.00
2023-10-06T19:20:10.767Z,1.60
2023-10-06T19:22:39.479Z,1.70
2023-10-06T19:25:10.991Z,2.20
2023-10-06T19:27:39.645Z,1.80
2023-10-06T19:30:11.238Z,1.70
2023-10-06T19:32:38.965Z,2.30
2023-10-06T19:35:09.996Z,1.80
2023-10-06T19:37:38.936Z,1.90
2023-10-06T19:40:10.758Z,2.50
2023-10-06T19:42:41.062Z,1.60
2023-10-06T19:45:09.162Z,1.30
2023-10-06T19:47:36.848Z,1.50
2023-10-06T19:50:12.845Z,1.80
2023-10-06T19:52:41.218Z,1.40
2023-10-06T19:55:09.248Z,0.90
2023-10-06T19:57:37.878Z,1.50
2023-10-06T20:00:12.435Z,1.10
2023-10-06T20:05:11.303Z,0.70
2023-10-06T20:07:38.721Z,0.90
2023-10-06T20:10:06.903Z,1.00
2023-10-06T20:12:34.224Z,0.90
2023-10-06T20:15:04.908Z,1.00
2023-10-06T20:17:32.467Z,0.90
2023-10-06T20:19:59.934Z,0.80
2023-10-06T20:22:27.533Z,0.80
2023-10-06T20:24:54.879Z,0.80
2023-10-06T20:27:22.717Z,0.80
2023-10-06T20:29:50.197Z,0.90
2023-10-06T20:32:17.726Z,0.80
2023-10-06T20:34:45.272Z,0.90
2023-10-06T20:37:12.708Z,0.90
2023-10-06T20:39:40.036Z,0.70
2023-10-06T20:42:07.377Z,0.90
2023-10-06T20:44:34.692Z,0.80
2023-10-06T20:47:03.668Z,0.60
2023-10-06T20:49:31.516Z,0.70
2023-10-06T20:51:58.981Z,0.70
2023-10-06T20:54:26.297Z,0.60
2023-10-06T20:56:53.586Z,0.70
2023-10-06T20:59:20.867Z,0.70
2023-10-06T21:01:50.234Z,1.10
2023-10-06T21:04:17.836Z,0.60
2023-10-06T21:06:45.315Z,0.60
2023-10-06T21:09:16.644Z,0.70
2023-10-06T21:11:44.523Z,0.60
2023-10-06T21:14:13.715Z,0.70
2023-10-06T21:16:42.687Z,0.80
2023-10-06T21:19:10.140Z,0.70
2023-10-06T21:21:37.482Z,0.70
2023-10-06T21:24:06.828Z,0.70
2023-10-06T21:26:37.302Z,0.80
2023-10-06T21:29:07.677Z,0.70
2023-10-06T21:31:37.195Z,0.70
2023-10-06T21:34:04.846Z,0.90
2023-10-06T21:36:32.157Z,0.70
2023-10-06T21:38:59.448Z,0.80
2023-10-06T21:41:26.774Z,0.70
2023-10-06T21:43:54.778Z,1.10
2023-10-06T21:46:22.975Z,1.50
2023-10-06T21:48:50.914Z,1.10
2023-10-06T21:51:18.450Z,1.60
2023-10-06T21:53:46.521Z,1.00
2023-10-06T21:56:13.896Z,1.00
2023-10-06T21:58:41.505Z,0.80
2023-10-06T22:01:14.862Z,0.70
2023-10-06T22:03:42.795Z,0.60
2023-10-06T22:06:11.184Z,0.60
2023-10-06T22:08:38.569Z,0.70
2023-10-06T22:11:05.981Z,0.90
2023-10-06T22:13:33.412Z,0.80
2023-10-06T22:16:00.878Z,0.80
2023-10-06T22:18:28.438Z,0.70
2023-10-06T22:20:55.952Z,1.20
2023-10-06T22:23:23.660Z,0.70
2023-10-06T22:25:52.494Z,0.90
2023-10-06T22:28:21.135Z,0.70
2023-10-06T22:30:50.167Z,0.80
2023-10-06T22:33:17.829Z,1.20
2023-10-06T22:35:45.322Z,0.90
2023-10-06T22:38:13.118Z,0.60
2023-10-06T22:40:40.892Z,0.70
2023-10-06T22:43:08.763Z,0.80
2023-10-06T22:45:39.025Z,0.70
2023-10-06T22:50:37.688Z,0.70
2023-10-06T22:53:05.117Z,0.90
2023-10-06T22:55:32.662Z,0.60
2023-10-06T22:58:00.098Z,0.80
2023-10-06T23:00:30.046Z,0.70
2023-10-06T23:02:57.983Z,0.80
2023-10-06T23:05:25.972Z,0.80
2023-10-06T23:07:53.859Z,0.70
2023-10-06T23:10:23.876Z,0.70
2023-10-06T23:12:51.945Z,0.70
2023-10-06T23:15:20.974Z,0.80
2023-10-06T23:17:50.561Z,0.70
2023-10-06T23:20:21.809Z,1.00
2023-10-06T23:23:00.204Z,0.70
2023-10-06T23:25:37.816Z,0.60
2023-10-06T23:28:07.645Z,0.50
2023-10-06T23:30:35.022Z,0.70
2023-10-06T23:33:02.405Z,0.70
2023-10-06T23:35:29.875Z,1.30
2023-10-06T23:37:57.980Z,0.70
2023-10-06T23:40:26.462Z,0.90
2023-10-06T23:42:56.929Z,0.70
2023-10-06T23:45:30.893Z,0.70
2023-10-06T23:47:59.227Z,0.60
2023-10-06T23:50:32.507Z,0.90
2023-10-06T23:53:01.409Z,0.90
2023-10-06T23:55:29.416Z,0.70
2023-10-06T23:57:56.784Z,0.80
